createdAt,value
2023-01-29T00:02:08.225Z,102242.66
2023-01-29T00:04:39.151Z,102240.44
2023-01-29T00:07:19.882Z,102227.53
2023-01-29T00:09:49.890Z,102230.81
2023-01-29T00:12:16.644Z,102231.16
2023-01-29T00:14:49.891Z,102230.53
2023-01-29T00:17:19.953Z,102235.16
2023-01-29T00:19:47.057Z,102224.72
2023-01-29T00:22:16.951Z,102219.53
2023-01-29T00:24:44.452Z,102215.50
2023-01-29T00:27:11.131Z,102218.16
2023-01-29T00:29:42.113Z,102212.00
2023-01-29T00:32:12.102Z,102200.88
2023-01-29T00:34:38.921Z,102200.09
2023-01-29T00:37:09.134Z,102206.78
2023-01-29T00:39:48.182Z,102206.69
2023-01-29T00:42:37.002Z,102208.63
2023-01-29T00:45:03.536Z,102206.16
2023-01-29T00:47:36.485Z,102203.00
2023-01-29T00:50:05.711Z,102199.44
2023-01-29T00:52:37.703Z,102205.81
2023-01-29T00:55:07.587Z,102209.91
2023-01-29T00:57:35.374Z,102215.13
2023-01-29T01:00:04.066Z,102222.41
2023-01-29T01:02:49.400Z,102214.50
2023-01-29T01:05:21.839Z,102216.31
2023-01-29T01:07:49.758Z,102213.09
2023-01-29T01:10:22.459Z,102206.16
2023-01-29T01:12:50.768Z,102203.63
2023-01-29T01:15:17.927Z,102195.91
2023-01-29T01:17:45.940Z,102204.56
2023-01-29T01:20:17.294Z,102199.84
2023-01-29T01:22:47.378Z,102208.00
2023-01-29T01:25:14.422Z,102206.63
2023-01-29T01:27:41.430Z,102206.09
2023-01-29T01:30:12.865Z,102209.50
2023-01-29T01:32:43.348Z,102208.69
2023-01-29T01:35:17.194Z,102203.03
2023-01-29T01:37:46.512Z,102196.50
2023-01-29T01:40:18.386Z,102190.16
2023-01-29T01:42:50.553Z,102196.34
2023-01-29T01:45:28.141Z,102195.47
2023-01-29T01:48:01.551Z,102192.88
2023-01-29T01:50:40.516Z,102197.91
2023-01-29T01:53:13.954Z,102183.59
2023-01-29T01:55:52.973Z,102191.66
2023-01-29T01:58:27.737Z,102196.94
2023-01-29T02:00:58.032Z,102189.63
2023-01-29T02:03:43.573Z,102195.00
2023-01-29T02:06:32.770Z,102188.59
2023-01-29T02:09:20.966Z,102187.81
2023-01-29T02:11:47.388Z,102179.59
2023-01-29T02:14:14.247Z,102176.19
2023-01-29T02:16:40.867Z,102171.47
2023-01-29T02:19:14.967Z,102171.63
2023-01-29T02:21:44.641Z,102161.00
2023-01-29T02:24:14.428Z,102158.81
2023-01-29T02:26:43.118Z,102158.94
2023-01-29T02:29:25.453Z,102155.31
2023-01-29T02:32:07.450Z,102149.53
2023-01-29T02:34:52.786Z,102156.53
2023-01-29T02:37:22.057Z,102160.16
2023-01-29T02:40:05.298Z,102153.03
2023-01-29T02:42:35.894Z,102155.72
2023-01-29T02:45:02.500Z,102157.63
2023-01-29T02:47:32.472Z,102159.31
2023-01-29T02:50:06.548Z,102147.16
2023-01-29T02:52:38.002Z,102148.44
2023-01-29T02:55:08.871Z,102128.84
2023-01-29T02:57:39.236Z,102136.72
2023-01-29T03:00:10.631Z,102139.19
2023-01-29T03:02:55.637Z,102125.06
2023-01-29T03:05:28.499Z,102126.13
2023-01-29T03:08:00.539Z,102124.78
2023-01-29T03:10:35.350Z,102117.56
2023-01-29T03:13:06.691Z,102106.31
2023-01-29T03:15:39.141Z,102097.47
2023-01-29T03:18:15.629Z,102103.66
2023-01-29T03:20:48.398Z,102108.88
2023-01-29T03:23:25.239Z,102101.38
2023-01-29T03:26:13.126Z,102098.66
2023-01-29T03:29:01.091Z,102096.19
2023-01-29T03:31:47.422Z,102089.75
2023-01-29T03:34:24.430Z,102092.88
2023-01-29T03:37:04.275Z,102089.78
2023-01-29T03:39:34.363Z,102084.13
2023-01-29T03:42:03.520Z,102089.09
2023-01-29T03:44:42.492Z,102084.97
2023-01-29T03:47:15.816Z,102093.00
2023-01-29T03:49:54.573Z,102085.88
2023-01-29T03:52:39.985Z,102077.69
2023-01-29T03:55:12.923Z,102061.09
2023-01-29T03:57:39.747Z,102067.50
2023-01-29T04:00:10.043Z,102067.84
2023-01-29T04:02:43.620Z,102070.81
2023-01-29T04:05:14.113Z,102070.28
2023-01-29T04:07:42.829Z,102075.09
2023-01-29T04:10:11.862Z,102075.34
2023-01-29T04:12:41.109Z,102072.81
2023-01-29T04:15:10.429Z,102069.53
2023-01-29T04:17:41.629Z,102065.03
2023-01-29T04:20:10.487Z,102064.38
2023-01-29T04:22:38.588Z,102083.28
2023-01-29T04:25:08.622Z,102066.56
2023-01-29T04:27:38.796Z,102067.59
2023-01-29T04:30:22.992Z,102069.75
2023-01-29T04:33:08.134Z,102070.03
2023-01-29T04:36:00.073Z,102068.72
2023-01-29T04:38:42.044Z,102072.88
2023-01-29T04:41:14.983Z,102076.88
2023-01-29T04:43:48.074Z,102077.59
2023-01-29T04:46:40.810Z,102077.63
2023-01-29T04:49:17.958Z,102086.63
2023-01-29T04:51:54.280Z,102083.44
2023-01-29T04:54:33.614Z,102085.09
2023-01-29T04:57:14.681Z,102069.50
2023-01-29T04:59:49.453Z,102067.75
2023-01-29T05:02:19.879Z,102065.19
2023-01-29T05:04:51.320Z,102066.75
2023-01-29T05:07:22.302Z,102064.81
2023-01-29T05:09:49.720Z,102065.78
2023-01-29T05:12:17.547Z,102047.66
2023-01-29T05:14:45.995Z,102059.06
2023-01-29T05:17:16.007Z,102054.34
2023-01-29T05:19:42.697Z,102049.31
2023-01-29T05:22:16.714Z,102046.97
2023-01-29T05:24:43.680Z,102055.25
2023-01-29T05:27:36.160Z,102069.97
2023-01-29T05:30:02.825Z,102061.06
2023-01-29T05:32:29.800Z,102045.94
2023-01-29T05:34:56.638Z,102051.47
2023-01-29T05:37:23.598Z,102058.81
2023-01-29T05:39:50.204Z,102042.13
2023-01-29T05:42:16.710Z,102048.50
2023-01-29T05:44:43.552Z,102043.53
2023-01-29T05:47:10.304Z,102048.25
2023-01-29T05:49:38.780Z,102042.41
2023-01-29T05:52:05.683Z,102046.00
2023-01-29T05:54:32.179Z,102058.41
2023-01-29T05:56:59.424Z,102058.84
2023-01-29T05:59:26.408Z,102062.53
2023-01-29T06:01:54.157Z,102060.84
2023-01-29T06:04:21.063Z,102059.66
2023-01-29T06:06:48.323Z,102050.19
2023-01-29T06:09:15.151Z,102037.88
2023-01-29T06:11:42.656Z,102030.59
2023-01-29T06:14:09.507Z,102015.47
2023-01-29T06:16:36.370Z,102019.44
2023-01-29T06:19:05.548Z,102016.78
2023-01-29T06:21:32.219Z,102012.91
2023-01-29T06:23:58.652Z,102016.66
2023-01-29T06:26:25.839Z,102017.25
2023-01-29T06:28:52.245Z,102004.69
2023-01-29T06:31:36.697Z,102000.38
2023-01-29T06:34:06.931Z,101995.91
2023-01-29T06:36:45.158Z,101999.22
2023-01-29T06:39:15.941Z,101988.31
2023-01-29T06:41:43.121Z,101995.19
2023-01-29T06:44:15.898Z,101989.94
2023-01-29T06:46:45.736Z,101975.06
2023-01-29T06:49:16.430Z,101978.78
2023-01-29T06:51:43.334Z,101986.44
2023-01-29T06:54:16.187Z,101976.47
2023-01-29T06:56:49.338Z,101990.56
2023-01-29T06:59:21.068Z,101984.25
2023-01-29T07:01:54.105Z,101985.16
2023-01-29T07:04:20.607Z,101973.91
2023-01-29T07:06:50.613Z,101974.59
2023-01-29T07:09:23.080Z,101983.56
2023-01-29T07:11:56.009Z,101972.25
2023-01-29T07:14:27.353Z,101982.84
2023-01-29T07:16:54.739Z,101984.31
2023-01-29T07:19:24.052Z,101982.22
2023-01-29T07:21:57.074Z,101984.06
2023-01-29T07:24:25.961Z,101980.56
2023-01-29T07:26:55.823Z,101969.78
2023-01-29T07:29:22.640Z,101953.44
2023-01-29T07:31:52.424Z,101942.84
2023-01-29T07:34:21.319Z,101940.41
2023-01-29T07:36:51.745Z,101939.63
2023-01-29T07:39:23.587Z,101944.78
2023-01-29T07:41:50.180Z,101950.81
2023-01-29T07:44:17.181Z,101945.00
2023-01-29T07:46:44.375Z,101944.63
2023-01-29T07:49:11.196Z,101945.38
2023-01-29T07:51:37.689Z,101955.97
2023-01-29T07:54:04.367Z,101952.25
2023-01-29T07:56:31.494Z,101947.06
2023-01-29T07:58:59.848Z,101942.34
2023-01-29T08:01:27.433Z,101943.72
2023-01-29T08:03:54.270Z,101940.75
2023-01-29T08:06:20.803Z,101940.22
2023-01-29T08:08:47.503Z,101939.41
2023-01-29T08:11:16.757Z,101941.81
2023-01-29T08:13:47.736Z,101936.56
2023-01-29T08:16:14.746Z,101926.31
2023-01-29T08:18:47.686Z,101931.66
2023-01-29T08:21:14.620Z,101935.13
2023-01-29T08:23:41.625Z,101934.09
2023-01-29T08:26:08.803Z,101936.84
2023-01-29T08:28:36.226Z,101933.00
2023-01-29T08:31:02.852Z,101935.31
2023-01-29T08:33:38.350Z,101934.00
2023-01-29T08:36:06.115Z,101931.97
2023-01-29T08:38:34.331Z,101936.69
2023-01-29T08:41:01.142Z,101937.84
2023-01-29T08:43:30.315Z,101929.56
2023-01-29T08:45:59.288Z,101932.53
2023-01-29T08:48:26.250Z,101927.84
2023-01-29T08:50:53.080Z,101930.13
2023-01-29T08:53:24.383Z,101935.03
2023-01-29T08:55:51.129Z,101930.34
2023-01-29T08:58:17.682Z,101931.66
2023-01-29T09:00:44.345Z,101932.19
2023-01-29T09:03:11.261Z,101932.53
2023-01-29T09:05:40.248Z,101935.84
2023-01-29T09:08:08.122Z,101942.16
2023-01-29T09:10:35.251Z,101935.06
2023-01-29T09:13:02.137Z,101933.38
2023-01-29T09:15:29.168Z,101936.13
2023-01-29T09:17:55.648Z,101927.63
2023-01-29T09:20:22.360Z,101926.19
2023-01-29T09:22:50.910Z,101926.91
2023-01-29T09:25:17.935Z,101921.03
2023-01-29T09:27:45.572Z,101925.91
2023-01-29T09:30:12.183Z,101922.97
2023-01-29T09:32:54.809Z,101915.47
2023-01-29T09:35:22.150Z,101903.91
2023-01-29T09:37:50.604Z,101899.13
2023-01-29T09:40:25.910Z,101898.97
2023-01-29T09:42:56.316Z,101888.72
2023-01-29T09:45:27.035Z,101889.63
2023-01-29T09:47:56.234Z,101889.56
2023-01-29T09:50:40.138Z,101877.97
2023-01-29T09:53:06.509Z,101877.22
2023-01-29T09:55:39.175Z,101881.13
2023-01-29T09:58:12.317Z,101868.31
2023-01-29T10:00:57.653Z,101870.47
2023-01-29T10:03:34.216Z,101864.06
2023-01-29T10:06:00.536Z,101852.19
2023-01-29T10:08:27.328Z,101849.94
2023-01-29T10:11:02.939Z,101845.09
2023-01-29T10:13:52.184Z,101852.59
2023-01-29T10:16:31.954Z,101847.81
2023-01-29T10:19:02.440Z,101835.25
2023-01-29T10:21:38.717Z,101829.84
2023-01-29T10:24:23.991Z,101811.50
2023-01-29T10:26:54.054Z,101819.91
2023-01-29T10:29:25.387Z,101813.97
2023-01-29T10:31:55.981Z,101811.91
2023-01-29T10:34:43.180Z,101816.94
2023-01-29T10:37:18.449Z,101817.63
2023-01-29T10:39:45.706Z,101821.97
2023-01-29T10:42:20.471Z,101811.69
2023-01-29T10:45:00.874Z,101812.31
2023-01-29T10:47:36.692Z,101811.13
2023-01-29T10:50:21.819Z,101794.78
2023-01-29T10:52:51.237Z,101798.56
2023-01-29T10:55:18.010Z,101795.19
2023-01-29T10:57:47.651Z,101782.78
2023-01-29T11:00:21.757Z,101781.78
2023-01-29T11:02:50.180Z,101782.16
2023-01-29T11:05:26.012Z,101788.00
2023-01-29T11:07:59.929Z,101787.69
2023-01-29T11:10:27.199Z,101788.84
2023-01-29T11:12:54.744Z,101781.50
2023-01-29T11:15:29.863Z,101777.44
2023-01-29T11:18:04.062Z,101768.94
2023-01-29T11:20:31.460Z,101773.38
2023-01-29T11:22:58.234Z,101762.97
2023-01-29T11:25:25.105Z,101768.50
2023-01-29T11:27:56.280Z,101764.38
2023-01-29T11:30:27.064Z,101762.34
2023-01-29T11:32:59.865Z,101764.75
2023-01-29T11:35:26.396Z,101755.50
2023-01-29T11:37:52.929Z,101743.19
2023-01-29T11:40:22.255Z,101735.97
2023-01-29T11:42:49.299Z,101732.75
2023-01-29T11:45:26.481Z,101726.16
2023-01-29T11:47:54.489Z,101730.50
2023-01-29T11:50:29.235Z,101725.13
2023-01-29T11:52:56.408Z,101720.94
2023-01-29T11:55:29.694Z,101718.69
2023-01-29T11:57:59.678Z,101716.00
2023-01-29T12:00:28.746Z,101705.50
2023-01-29T12:03:05.290Z,101705.75
2023-01-29T12:05:32.078Z,101693.97
2023-01-29T12:08:00.521Z,101692.41
2023-01-29T12:10:35.766Z,101678.16
2023-01-29T12:13:05.941Z,101679.50
2023-01-29T12:15:32.978Z,101670.94
2023-01-29T12:18:02.951Z,101668.41
2023-01-29T12:20:46.364Z,101663.84
2023-01-29T12:23:22.378Z,101668.53
2023-01-29T12:26:07.893Z,101660.03
2023-01-29T12:28:44.602Z,101651.09
2023-01-29T12:31:30.176Z,101646.06
2023-01-29T12:34:12.288Z,101638.50
2023-01-29T12:36:42.588Z,101630.94
2023-01-29T12:39:13.451Z,101628.72
2023-01-29T12:41:45.972Z,101623.28
2023-01-29T12:44:19.678Z,101627.41
2023-01-29T12:46:56.976Z,101611.63
2023-01-29T12:49:25.677Z,101611.06
2023-01-29T12:51:59.364Z,101615.78
2023-01-29T12:54:31.964Z,101618.09
2023-01-29T12:57:02.606Z,101602.63
2023-01-29T12:59:30.367Z,101607.41
2023-01-29T13:01:59.585Z,101601.38
2023-01-29T13:04:32.489Z,101595.16
2023-01-29T13:07:12.119Z,101592.63
2023-01-29T13:09:39.827Z,101589.47
2023-01-29T13:12:13.310Z,101581.69
2023-01-29T13:14:45.856Z,101568.34
2023-01-29T13:17:21.867Z,101567.00
2023-01-29T13:19:51.450Z,101561.53
2023-01-29T13:22:38.031Z,101562.09
2023-01-29T13:25:05.967Z,101568.53
2023-01-29T13:27:34.103Z,101559.69
2023-01-29T13:30:03.943Z,101557.28
2023-01-29T13:32:31.956Z,101551.75
2023-01-29T13:35:00.332Z,101553.56
2023-01-29T13:37:34.567Z,101553.94
2023-01-29T13:40:02.485Z,101549.50
2023-01-29T13:42:47.217Z,101539.34
2023-01-29T13:45:21.279Z,101542.69
2023-01-29T13:47:49.146Z,101532.53
2023-01-29T13:50:20.039Z,101527.63
2023-01-29T13:52:46.788Z,101533.47
2023-01-29T13:55:21.521Z,101528.28
2023-01-29T13:57:55.708Z,101526.66
2023-01-29T14:00:22.538Z,101525.91
2023-01-29T14:03:11.804Z,101520.00
2023-01-29T14:05:39.935Z,101508.91
2023-01-29T14:08:09.465Z,101500.59
2023-01-29T14:10:37.325Z,101506.88
2023-01-29T14:13:04.130Z,101496.81
2023-01-29T14:15:33.899Z,101490.72
2023-01-29T14:18:04.765Z,101495.25
2023-01-29T14:20:45.064Z,101482.25
2023-01-29T14:23:19.014Z,101486.16
2023-01-29T14:25:47.545Z,101478.63
2023-01-29T14:28:16.664Z,101461.94
2023-01-29T14:30:57.520Z,101465.63
2023-01-29T14:33:28.196Z,101467.97
2023-01-29T14:36:02.931Z,101456.38
2023-01-29T14:38:32.071Z,101463.59
2023-01-29T14:41:07.609Z,101454.78
2023-01-29T14:43:34.513Z,101457.69
2023-01-29T14:46:19.797Z,101451.59
2023-01-29T14:48:50.758Z,101452.97
2023-01-29T14:51:18.151Z,101455.56
2023-01-29T14:53:47.762Z,101450.47
2023-01-29T14:56:21.126Z,101447.72
2023-01-29T14:58:50.243Z,101445.72
2023-01-29T15:01:22.433Z,101441.28
2023-01-29T15:04:00.668Z,101438.91
2023-01-29T15:06:30.493Z,101436.47
2023-01-29T15:09:12.224Z,101437.59
2023-01-29T15:11:57.620Z,101436.81
2023-01-29T15:14:28.991Z,101433.75
2023-01-29T15:17:02.740Z,101437.22
2023-01-29T15:19:33.212Z,101431.63
2023-01-29T15:22:06.772Z,101431.75
2023-01-29T15:24:33.210Z,101412.41
2023-01-29T15:27:00.393Z,101424.84
2023-01-29T15:29:27.460Z,101418.66
2023-01-29T15:31:54.834Z,101409.66
2023-01-29T15:34:21.417Z,101408.25
2023-01-29T15:36:49.066Z,101395.47
2023-01-29T15:39:18.937Z,101394.56
2023-01-29T15:41:45.827Z,101387.53
2023-01-29T15:44:19.922Z,101378.66
2023-01-29T15:46:57.825Z,101379.28
2023-01-29T15:49:29.244Z,101372.69
2023-01-29T15:51:57.582Z,101381.19
2023-01-29T15:54:24.214Z,101368.81
2023-01-29T15:56:52.449Z,101367.00
2023-01-29T15:59:19.820Z,101367.09
2023-01-29T16:01:46.826Z,101359.72
2023-01-29T16:04:28.893Z,101373.50
2023-01-29T16:06:56.335Z,101352.63
2023-01-29T16:09:25.059Z,101346.84
2023-01-29T16:11:53.298Z,101345.31
2023-01-29T16:14:21.837Z,101356.41
2023-01-29T16:16:48.633Z,101348.19
2023-01-29T16:19:23.192Z,101352.09
2023-01-29T16:21:56.365Z,101356.91
2023-01-29T16:24:24.997Z,101348.66
2023-01-29T16:26:53.406Z,101345.88
2023-01-29T16:29:22.333Z,101346.66
2023-01-29T16:31:51.274Z,101342.59
2023-01-29T16:34:24.340Z,101335.31
2023-01-29T16:36:52.847Z,101334.66
2023-01-29T16:39:22.099Z,101328.47
2023-01-29T16:42:07.353Z,101328.66
2023-01-29T16:44:39.389Z,101326.69
2023-01-29T16:47:10.873Z,101323.63
2023-01-29T16:49:37.299Z,101313.28
2023-01-29T16:52:19.036Z,101309.22
2023-01-29T16:54:45.360Z,101312.69
2023-01-29T16:57:15.319Z,101311.72
2023-01-29T16:59:42.862Z,101298.56
2023-01-29T17:02:21.491Z,101303.31
2023-01-29T17:04:47.921Z,101307.78
2023-01-29T17:07:21.400Z,101294.50
2023-01-29T17:09:53.637Z,101295.63
2023-01-29T17:12:21.565Z,101281.06
2023-01-29T17:14:58.944Z,101275.72
2023-01-29T17:17:29.622Z,101276.47
2023-01-29T17:19:56.384Z,101258.97
2023-01-29T17:22:23.182Z,101262.16
2023-01-29T17:24:51.521Z,101260.72
2023-01-29T17:27:22.200Z,101259.06
2023-01-29T17:29:49.310Z,101252.53
2023-01-29T17:32:17.492Z,101239.81
2023-01-29T17:34:43.885Z,101245.97
2023-01-29T17:37:14.544Z,101236.19
2023-01-29T17:39:41.571Z,101234.78
2023-01-29T17:42:10.623Z,101229.47
2023-01-29T17:44:37.020Z,101229.31
2023-01-29T17:47:05.386Z,101213.44
2023-01-29T17:49:35.797Z,101231.06
2023-01-29T17:52:02.150Z,101224.72
2023-01-29T17:54:28.832Z,101219.81
2023-01-29T17:56:55.351Z,101215.66
2023-01-29T17:59:22.685Z,101211.84
2023-01-29T18:01:50.257Z,101206.09
2023-01-29T18:04:17.264Z,101198.16
2023-01-29T18:06:44.859Z,101198.72
2023-01-29T18:09:15.328Z,101195.13
2023-01-29T18:11:42.229Z,101185.25
2023-01-29T18:14:14.174Z,101181.47
2023-01-29T18:16:41.824Z,101177.13
2023-01-29T18:19:21.662Z,101173.94
2023-01-29T18:21:48.293Z,101175.16
2023-01-29T18:24:14.787Z,101157.03
2023-01-29T18:26:41.551Z,101149.94
2023-01-29T18:29:08.446Z,101151.31
2023-01-29T18:31:34.874Z,101146.88
2023-01-29T18:34:01.373Z,101141.69
2023-01-29T18:36:27.943Z,101140.81
2023-01-29T18:38:55.465Z,101138.50
2023-01-29T18:41:21.982Z,101128.19
2023-01-29T18:43:48.391Z,101120.56
2023-01-29T18:46:15.027Z,101109.06
2023-01-29T18:48:42.776Z,101121.19
2023-01-29T18:51:09.823Z,101103.28
2023-01-29T18:53:36.272Z,101099.97
2023-01-29T18:56:06.352Z,101093.53
2023-01-29T18:58:36.339Z,101101.06
2023-01-29T19:01:08.902Z,101085.00
2023-01-29T19:03:36.436Z,101087.41
2023-01-29T19:06:04.438Z,101082.91
2023-01-29T19:08:30.891Z,101077.19
2023-01-29T19:10:57.890Z,101062.53
2023-01-29T19:13:24.657Z,101048.19
2023-01-29T19:15:51.369Z,101064.28
2023-01-29T19:18:17.897Z,101060.91
2023-01-29T19:20:44.331Z,101044.22
2023-01-29T19:23:10.770Z,101050.88
2023-01-29T19:25:38.717Z,101043.56
2023-01-29T19:28:06.115Z,101033.13
2023-01-29T19:30:32.854Z,101041.25
2023-01-29T19:32:59.204Z,101039.06
2023-01-29T19:35:25.839Z,101035.31
2023-01-29T19:37:52.426Z,101024.88
2023-01-29T19:40:19.633Z,101010.34
2023-01-29T19:42:46.031Z,101018.25
2023-01-29T19:45:13.581Z,101008.47
2023-01-29T19:47:40.853Z,101008.47
2023-01-29T19:50:08.390Z,101012.44
2023-01-29T19:52:50.168Z,100995.13
2023-01-29T19:55:18.046Z,100998.06
2023-01-29T19:57:44.851Z,101000.69
2023-01-29T20:00:12.154Z,101002.66
2023-01-29T20:02:38.768Z,101001.47
2023-01-29T20:05:05.613Z,101000.38
2023-01-29T20:07:31.960Z,100991.88
2023-01-29T20:09:58.364Z,100991.28
2023-01-29T20:12:27.024Z,100983.94
2023-01-29T20:14:53.857Z,100984.16
2023-01-29T20:17:20.467Z,100970.44
2023-01-29T20:19:48.179Z,100973.63
2023-01-29T20:22:14.658Z,100959.06
2023-01-29T20:24:42.519Z,100968.59
2023-01-29T20:27:10.932Z,100956.63
2023-01-29T20:29:38.296Z,100958.28
2023-01-29T20:32:05.836Z,100952.09
2023-01-29T20:34:32.433Z,100930.44
2023-01-29T20:36:58.790Z,100946.16
2023-01-29T20:39:25.330Z,100944.06
2023-01-29T20:41:52.069Z,100922.41
2023-01-29T20:44:19.324Z,100918.31
2023-01-29T20:46:46.469Z,100913.88
2023-01-29T20:49:12.891Z,100922.06
2023-01-29T20:51:39.366Z,100915.13
2023-01-29T20:54:05.727Z,100917.09
2023-01-29T20:56:40.109Z,100921.47
2023-01-29T20:59:08.982Z,100920.59
2023-01-29T21:01:35.353Z,100909.13
2023-01-29T21:04:01.749Z,100910.34
2023-01-29T21:06:29.626Z,100888.81
2023-01-29T21:08:56.108Z,100879.34
2023-01-29T21:11:22.592Z,100879.03
2023-01-29T21:13:48.960Z,100862.81
2023-01-29T21:16:15.879Z,100852.91
2023-01-29T21:18:42.339Z,100847.25
2023-01-29T21:21:08.868Z,100852.59
2023-01-29T21:23:35.303Z,100838.75
2023-01-29T21:26:03.451Z,100838.78
2023-01-29T21:28:29.935Z,100817.56
2023-01-29T21:31:03.440Z,100820.59
2023-01-29T21:33:29.922Z,100808.19
2023-01-29T21:36:01.926Z,100814.63
2023-01-29T21:38:28.444Z,100807.47
2023-01-29T21:41:01.588Z,100818.19
2023-01-29T21:43:27.932Z,100821.91
2023-01-29T21:45:55.558Z,100813.59
2023-01-29T21:48:22.439Z,100805.00
2023-01-29T21:50:51.341Z,100801.34
2023-01-29T21:53:18.340Z,100808.69
2023-01-29T21:55:45.538Z,100800.25
2023-01-29T21:58:26.404Z,100810.91
2023-01-29T22:00:53.824Z,100812.88
2023-01-29T22:03:20.535Z,100810.50
2023-01-29T22:05:47.006Z,100779.38
2023-01-29T22:08:13.773Z,100793.56
2023-01-29T22:10:40.932Z,100796.03
2023-01-29T22:13:08.632Z,100772.81
2023-01-29T22:15:35.821Z,100761.00
2023-01-29T22:18:03.793Z,100755.38
2023-01-29T22:20:31.230Z,100744.00
2023-01-29T22:23:04.882Z,100735.97
2023-01-29T22:25:32.543Z,100739.97
2023-01-29T22:28:01.120Z,100741.00
2023-01-29T22:30:27.921Z,100734.38
2023-01-29T22:32:54.489Z,100731.09
2023-01-29T22:35:20.935Z,100724.53
2023-01-29T22:37:47.595Z,100716.91
2023-01-29T22:40:14.482Z,100697.56
2023-01-29T22:42:41.135Z,100696.88
2023-01-29T22:45:08.637Z,100697.72
2023-01-29T22:47:35.411Z,100705.34
2023-01-29T22:50:01.981Z,100681.56
2023-01-29T22:52:28.648Z,100695.91
2023-01-29T22:54:55.536Z,100689.81
2023-01-29T22:57:22.377Z,100670.22
2023-01-29T22:59:48.946Z,100653.19
2023-01-29T23:02:15.591Z,100634.66
2023-01-29T23:04:42.298Z,100624.91
2023-01-29T23:07:08.900Z,100627.63
2023-01-29T23:09:35.605Z,100609.75
2023-01-29T23:12:02.442Z,100615.38
2023-01-29T23:14:28.818Z,100589.38
2023-01-29T23:16:55.845Z,100578.22
2023-01-29T23:19:22.889Z,100566.31
2023-01-29T23:21:49.459Z,100557.03
2023-01-29T23:24:16.616Z,100536.13
2023-01-29T23:27:02.075Z,100550.56
2023-01-29T23:29:28.383Z,100543.13
2023-01-29T23:31:54.810Z,100521.47
2023-01-29T23:34:21.200Z,100518.47
2023-01-29T23:36:47.862Z,100528.56
2023-01-29T23:39:14.419Z,100493.81
2023-01-29T23:41:41.180Z,100506.63
2023-01-29T23:44:07.570Z,100508.75
2023-01-29T23:46:34.748Z,100510.53
2023-01-29T23:49:01.264Z,100545.41
2023-01-29T23:51:27.837Z,100531.72
2023-01-29T23:53:54.249Z,100529.06
2023-01-29T23:56:20.848Z,100517.31
2023-01-29T23:58:47.418Z,100519.72
